Time;durP1;ratioP1;P1;durP2;ratioP2;P2;SDS_P1;SDS_P2;PMS_P1;PMS_P2;Temp;Humidity;BMP_temperature;BMP_pressure;BME280_temperature;BME280_humidity;BME280_pressure;Samples;Min_cycle;Max_cycle;Signal;HPM_P1;HPM_P2
2023/08/11 00:01:26;;;;;;;;;;;;;;;14.20;100.00;102121.72;5095263;28;19915;-73
2023/08/11 00:03:52;;;;;;;;;;;;;;;14.18;100.00;102117.47;5112798;28;19926;-74
2023/08/11 00:06:17;;;;;;;;;;;;;;;14.15;100.00;102117.72;5113609;28;19969;-74
2023/08/11 00:08:43;;;;;;;;;;;;;;;14.14;100.00;102111.53;5113611;28;19920;-74
2023/08/11 00:11:08;;;;;;;;;;;;;;;14.13;100.00;102117.03;5113165;28;19923;-74
2023/08/11 00:13:33;;;;;;;;;;;;;;;14.11;100.00;102109.97;5113485;28;20376;-74
2023/08/11 00:16:01;;;;;;;;;;;;;;;14.11;100.00;102106.47;5112988;28;19927;-73
2023/08/11 00:18:26;;;;;;;;;;;;;;;14.08;100.00;102107.56;5112990;28;19915;-73
2023/08/11 00:20:51;;;;;;;;;;;;;;;14.07;100.00;102107.69;5112707;28;19927;-74
2023/08/11 00:23:17;;;;;;;;;;;;;;;14.05;100.00;102097.13;5094675;28;19927;-74
2023/08/11 00:25:42;;;;;;;;;;;;;;;14.05;100.00;102105.16;5113467;28;19926;-74
2023/08/11 00:28:07;;;;;;;;;;;;;;;14.04;100.00;102102.59;5112648;28;19955;-74
2023/08/11 00:30:33;;;;;;;;;;;;;;;14.01;100.00;102092.16;5113419;28;19975;-74
2023/08/11 00:32:58;;;;;;;;;;;;;;;13.98;100.00;102095.94;5112495;28;20334;-74
2023/08/11 00:35:23;;;;;;;;;;;;;;;13.98;100.00;102092.44;5095103;28;19920;-74
2023/08/11 00:37:49;;;;;;;;;;;;;;;13.95;100.00;102088.19;5078103;28;20269;-74
2023/08/11 00:40:14;;;;;;;;;;;;;;;13.92;100.00;102085.75;5112505;28;19970;-74
2023/08/11 00:42:39;;;;;;;;;;;;;;;13.88;100.00;102087.88;5112964;28;19920;-74
2023/08/11 00:45:05;;;;;;;;;;;;;;;13.87;100.00;102082.66;5094590;28;19915;-74
2023/08/11 00:47:31;;;;;;;;;;;;;;;13.85;100.00;102092.59;5113264;28;19927;-74
2023/08/11 00:49:56;;;;;;;;;;;;;;;13.82;100.00;102084.84;5094004;28;20324;-74
2023/08/11 00:52:21;;;;;;;;;;;;;;;13.79;100.00;102071.72;5094491;28;20010;-74
2023/08/11 00:54:47;;;;;;;;;;;;;;;13.77;100.00;102076.38;5112955;28;19916;-74
2023/08/11 00:57:13;;;;;;;;;;;;;;;13.74;100.00;102072.97;5112652;28;19924;-74
2023/08/11 00:59:39;;;;;;;;;;;;;;;13.73;100.00;102078.44;5112899;28;20436;-73
2023/08/11 01:02:04;;;;;;;;;;;;;;;13.72;100.00;102072.25;5112526;28;19985;-72
2023/08/11 01:04:30;;;;;;;;;;;;;;;13.73;100.00;102082.00;5112643;28;19928;-74
2023/08/11 01:06:58;;;;;;;;;;;;;;;13.71;100.00;102081.25;5114205;28;19919;-75
2023/08/11 01:09:32;;;;;;;;;;;;;;;13.70;100.00;102070.69;5116812;28;19916;-74
2023/08/11 01:12:09;;;;;;;;;;;;;;;13.67;100.00;102079.81;5116289;28;19922;-73
2023/08/11 01:14:40;;;;;;;;;;;;;;;13.67;100.00;102084.31;5116679;28;19916;-73
2023/08/11 01:17:09;;;;;;;;;;;;;;;13.66;100.00;102082.59;5116159;28;19916;-73
2023/08/11 01:19:35;;;;;;;;;;;;;;;13.66;100.00;102079.94;5116609;28;20283;-73
2023/08/11 01:22:03;;;;;;;;;;;;;;;13.64;100.00;102064.00;5115932;28;19974;-73
2023/08/11 01:24:29;;;;;;;;;;;;;;;13.63;100.00;102072.16;5116456;28;19916;-73
2023/08/11 01:26:57;;;;;;;;;;;;;;;13.60;100.00;102064.41;5116140;28;20245;-73
2023/08/11 01:29:23;;;;;;;;;;;;;;;13.57;100.00;102054.84;5116146;28;20432;-73
2023/08/11 01:31:48;;;;;;;;;;;;;;;13.53;100.00;102056.91;5116131;28;19923;-72
2023/08/11 01:34:13;;;;;;;;;;;;;;;13.50;100.00;102053.66;5115861;28;19927;-73
2023/08/11 01:36:40;;;;;;;;;;;;;;;13.47;100.00;102052.06;5116020;28;20295;-74
2023/08/11 01:39:06;;;;;;;;;;;;;;;13.46;100.00;102054.88;5115709;28;19916;-74
2023/08/11 01:41:31;;;;;;;;;;;;;;;13.45;100.00;102053.19;5115882;28;19920;-74
2023/08/11 01:43:57;;;;;;;;;;;;;;;13.42;100.00;102048.09;5116089;28;20375;-74
2023/08/11 01:46:22;;;;;;;;;;;;;;;13.38;100.00;102053.69;5115907;28;19923;-74
2023/08/11 01:48:49;;;;;;;;;;;;;;;13.36;100.00;102052.13;5115688;28;19915;-74
2023/08/11 01:51:14;;;;;;;;;;;;;;;13.36;100.00;102058.31;5115450;28;19934;-74
2023/08/11 01:53:39;;;;;;;;;;;;;;;13.37;100.00;102064.50;5115609;28;19923;-73
2023/08/11 01:56:05;;;;;;;;;;;;;;;13.35;100.00;102063.81;5115183;28;19920;-74
2023/08/11 01:58:30;;;;;;;;;;;;;;;13.33;100.00;102066.56;5115556;28;19919;-73
2023/08/11 02:00:56;;;;;;;;;;;;;;;13.31;100.00;102060.47;5115873;28;20364;-74
2023/08/11 02:03:22;;;;;;;;;;;;;;;13.31;100.00;102065.84;5115331;28;20434;-74
2023/08/11 02:05:47;;;;;;;;;;;;;;;13.29;100.00;102058.94;5115729;28;19923;-74
2023/08/11 02:08:17;;;;;;;;;;;;;;;13.27;100.00;102063.53;5115139;28;19927;-74
2023/08/11 02:10:42;;;;;;;;;;;;;;;13.26;100.00;102059.19;5098063;28;19965;-74
2023/08/11 02:13:09;;;;;;;;;;;;;;;13.23;100.00;102061.13;5114810;28;19974;-74
2023/08/11 02:15:34;;;;;;;;;;;;;;;13.23;100.00;102060.28;5115518;28;19931;-73
2023/08/11 02:17:59;;;;;;;;;;;;;;;13.21;100.00;102054.19;5115995;28;19925;-74
2023/08/11 02:20:25;;;;;;;;;;;;;;;13.19;100.00;102058.84;5096946;28;19915;-74
2023/08/11 02:22:50;;;;;;;;;;;;;;;13.18;100.00;102055.31;5115557;28;19932;-74
2023/08/11 02:25:16;;;;;;;;;;;;;;;13.17;100.00;102055.44;5115321;28;19920;-74
2023/08/11 02:27:41;;;;;;;;;;;;;;;13.15;100.00;102049.38;5115900;28;20014;-74
2023/08/11 02:30:10;;;;;;;;;;;;;;;13.11;100.00;102043.44;5114684;28;19942;-74
2023/08/11 02:32:37;;;;;;;;;;;;;;;13.10;100.00;102046.25;5115017;28;19916;-74
2023/08/11 02:35:02;;;;;;;;;;;;;;;13.09;100.00;102047.22;5114986;28;19915;-74
2023/08/11 02:37:28;;;;;;;;;;;;;;;13.07;100.00;102033.13;5114575;28;20253;-74
2023/08/11 02:39:53;;;;;;;;;;;;;;;13.05;100.00;102039.44;5114819;28;20353;-74
2023/08/11 02:42:18;;;;;;;;;;;;;;;13.05;100.00;102041.28;5114652;28;19919;-74
2023/08/11 02:44:44;;;;;;;;;;;;;;;13.01;100.00;102038.00;5114908;28;19927;-73
2023/08/11 02:47:09;;;;;;;;;;;;;;;13.01;100.00;102031.81;5114212;28;19930;-74
2023/08/11 02:49:35;;;;;;;;;;;;;;;13.00;100.00;102041.66;5114810;28;19923;-74
2023/08/11 02:52:00;;;;;;;;;;;;;;;13.01;100.00;102045.16;5114764;28;19935;-74
2023/08/11 02:54:25;;;;;;;;;;;;;;;13.00;100.00;102041.66;5114065;28;20012;-74
2023/08/11 02:56:50;;;;;;;;;;;;;;;13.02;100.00;102038.84;5114557;28;20364;-73
2023/08/11 02:59:15;;;;;;;;;;;;;;;13.05;100.00;102041.28;5114325;28;20382;-74
2023/08/11 03:01:41;;;;;;;;;;;;;;;13.06;100.00;102040.28;5114374;28;19973;-73
2023/08/11 03:04:07;;;;;;;;;;;;;;;13.05;100.00;102039.44;5114230;28;19920;-73
2023/08/11 03:06:32;;;;;;;;;;;;;;;13.07;100.00;102035.81;5114179;28;19989;-73
2023/08/11 03:08:57;;;;;;;;;;;;;;;13.07;100.00;102031.31;5114334;28;20383;-73
2023/08/11 03:11:24;;;;;;;;;;;;;;;13.10;100.00;102038.22;5094977;28;22458;-75
2023/08/11 03:13:49;;;;;;;;;;;;;;;13.08;100.00;102033.00;5114335;28;19920;-74
2023/08/11 03:16:15;;;;;;;;;;;;;;;13.08;100.00;102025.00;5095922;28;19920;-74
2023/08/11 03:18:40;;;;;;;;;;;;;;;13.08;100.00;102035.69;5114375;28;19916;-74
2023/08/11 03:21:05;;;;;;;;;;;;;;;13.10;100.00;102030.22;5114221;28;19916;-74
2023/08/11 03:23:33;;;;;;;;;;;;;;;13.09;100.00;102033.84;5113745;28;20332;-74
2023/08/11 03:25:59;;;;;;;;;;;;;;;13.13;100.00;102032.63;5114203;28;20367;-74
2023/08/11 03:28:24;;;;;;;;;;;;;;;13.13;100.00;102030.78;5095922;28;19927;-74
2023/08/11 03:30:49;;;;;;;;;;;;;;;13.11;100.00;102031.91;5114004;28;20363;-74
2023/08/11 03:33:14;;;;;;;;;;;;;;;13.08;100.00;102025.00;5095422;28;20265;-75
2023/08/11 03:35:39;;;;;;;;;;;;;;;13.08;100.00;102026.78;5113976;28;20411;-74
2023/08/11 03:38:05;;;;;;;;;;;;;;;13.06;100.00;102024.25;5113876;28;20407;-73
2023/08/11 03:40:30;;;;;;;;;;;;;;;13.03;100.00;102017.34;5095307;28;20424;-74
2023/08/11 03:42:56;;;;;;;;;;;;;;;13.00;100.00;102016.75;5113820;28;20045;-74
2023/08/11 03:45:21;;;;;;;;;;;;;;;12.98;100.00;102014.19;5095218;28;19916;-72
2023/08/11 03:47:46;;;;;;;;;;;;;;;12.97;100.00;102014.31;5113522;28;19916;-72
2023/08/11 03:50:12;;;;;;;;;;;;;;;12.98;100.00;102016.03;5113793;28;20004;-73
2023/08/11 03:52:37;;;;;;;;;;;;;;;12.98;100.00;102008.84;5113283;28;19973;-72
2023/08/11 03:55:03;;;;;;;;;;;;;;;12.97;100.00;102009.84;5113755;28;19916;-72
2023/08/11 03:57:29;;;;;;;;;;;;;;;12.97;100.00;101998.31;5113304;28;20023;-72
2023/08/11 03:59:54;;;;;;;;;;;;;;;12.96;100.00;101999.28;5113602;28;20304;-75
2023/08/11 04:02:19;;;;;;;;;;;;;;;12.94;100.00;101990.53;5112946;28;19963;-75
2023/08/11 04:04:45;;;;;;;;;;;;;;;12.93;100.00;101994.19;5113725;28;19915;-74
2023/08/11 04:07:10;;;;;;;;;;;;;;;12.92;100.00;101992.50;5113529;28;20024;-74
2023/08/11 04:09:39;;;;;;;;;;;;;;;12.89;100.00;101985.59;5095499;28;19920;-75
2023/08/11 04:12:05;;;;;;;;;;;;;;;12.90;100.00;101989.09;5113821;28;19990;-74
2023/08/11 04:14:30;;;;;;;;;;;;;;;12.90;100.00;101983.75;5112954;28;19928;-75
2023/08/11 04:16:56;;;;;;;;;;;;;;;12.87;100.00;101984.88;5113499;28;19959;-72
2023/08/11 04:19:21;;;;;;;;;;;;;;;12.87;100.00;101974.19;5112886;28;19920;-75
2023/08/11 04:21:47;;;;;;;;;;;;;;;12.86;100.00;101973.31;5095177;28;19924;-73
2023/08/11 04:24:12;;;;;;;;;;;;;;;12.87;100.00;101983.03;5113591;28;20295;-73
2023/08/11 04:26:38;;;;;;;;;;;;;;;12.86;100.00;101978.66;5094363;28;19916;-73
2023/08/11 04:29:03;;;;;;;;;;;;;;;12.86;100.00;101978.66;5113114;28;19915;-72
2023/08/11 04:31:29;;;;;;;;;;;;;;;12.86;100.00;101970.66;5112659;28;19958;-73
2023/08/11 04:33:54;;;;;;;;;;;;;;;12.86;100.00;101972.47;5113203;28;19938;-73
2023/08/11 04:36:19;;;;;;;;;;;;;;;12.84;100.00;101966.44;5113104;28;19956;-73
2023/08/11 04:38:45;;;;;;;;;;;;;;;12.83;100.00;101962.06;5112895;28;19927;-73
2023/08/11 04:41:10;;;;;;;;;;;;;;;12.84;100.00;101963.75;5113524;28;19920;-73
2023/08/11 04:43:35;;;;;;;;;;;;;;;12.88;100.00;101965.19;5116945;28;19972;-73
2023/08/11 04:46:01;;;;;;;;;;;;;;;12.89;100.00;101966.88;5117253;28;19916;-73
2023/08/11 04:48:26;;;;;;;;;;;;;;;12.90;100.00;101959.72;5116848;28;19972;-73
2023/08/11 04:50:52;;;;;;;;;;;;;;;12.92;100.00;101958.63;5117141;28;19967;-74
2023/08/11 04:53:17;;;;;;;;;;;;;;;12.96;100.00;101967.25;5117090;28;19916;-73
2023/08/11 04:55:43;;;;;;;;;;;;;;;13.00;100.00;101966.00;5116801;28;20324;-73
2023/08/11 04:58:09;;;;;;;;;;;;;;;13.03;100.00;101971.06;5116885;28;20028;-73
2023/08/11 05:00:34;;;;;;;;;;;;;;;13.08;100.00;101978.69;5116646;28;19927;-73
2023/08/11 05:02:59;;;;;;;;;;;;;;;13.13;100.00;101966.66;5116964;28;19924;-73
2023/08/11 05:05:26;;;;;;;;;;;;;;;13.16;100.00;101971.75;5116674;28;19926;-73
2023/08/11 05:07:51;;;;;;;;;;;;;;;13.21;100.00;101969.56;5116936;28;19923;-73
2023/08/11 05:10:16;;;;;;;;;;;;;;;13.28;100.00;101963.69;5117143;28;19916;-73
2023/08/11 05:12:42;;;;;;;;;;;;;;;13.34;100.00;101964.03;5117118;28;19927;-73
2023/08/11 05:15:07;;;;;;;;;;;;;;;13.45;100.00;101965.81;5116652;28;20022;-73
2023/08/11 05:17:32;;;;;;;;;;;;;;;13.57;100.00;101959.41;5116269;28;20287;-73
2023/08/11 05:19:58;;;;;;;;;;;;;;;13.69;100.00;101964.66;5116356;28;19916;-73
2023/08/11 05:22:23;;;;;;;;;;;;;;;13.81;100.00;101952.06;5116214;28;19931;-73
2023/08/11 05:24:48;;;;;;;;;;;;;;;13.90;100.00;101959.31;5115846;28;19919;-74
2023/08/11 05:27:15;;;;;;;;;;;;;;;14.00;100.00;101970.03;5116671;28;20024;-74
2023/08/11 05:29:40;;;;;;;;;;;;;;;14.12;100.00;101968.97;5115985;28;19923;-74
2023/08/11 05:32:05;;;;;;;;;;;;;;;14.22;100.00;101974.38;5098061;28;20280;-74
2023/08/11 05:34:30;;;;;;;;;;;;;;;14.31;100.00;101970.03;5115824;28;19919;-75
2023/08/11 05:36:56;;;;;;;;;;;;;;;14.40;100.00;101969.22;5116190;28;20356;-73
2023/08/11 05:39:21;;;;;;;;;;;;;;;14.51;100.00;101976.28;5097824;28;19969;-73
2023/08/11 05:41:46;;;;;;;;;;;;;;;14.59;100.00;101974.59;5115842;28;19919;-73
2023/08/11 05:44:11;;;;;;;;;;;;;;;14.69;100.00;101977.34;5116270;28;20349;-73
2023/08/11 05:46:37;;;;;;;;;;;;;;;14.77;100.00;101974.81;5115372;28;20440;-74
2023/08/11 05:49:02;;;;;;;;;;;;;;;14.87;100.00;101974.84;5115815;28;19923;-73
2023/08/11 05:51:28;;;;;;;;;;;;;;;14.97;100.00;101975.69;5116125;28;20007;-74
2023/08/11 05:53:53;;;;;;;;;;;;;;;15.06;100.00;101976.69;5115022;28;19920;-74
2023/08/11 05:56:18;;;;;;;;;;;;;;;15.15;100.00;101978.50;5115478;28;19920;-73
2023/08/11 05:58:44;;;;;;;;;;;;;;;15.25;100.00;101973.13;5115178;28;19927;-74
2023/08/11 06:01:09;;;;;;;;;;;;;;;15.34;100.00;101971.44;5097551;28;19946;-73
2023/08/11 06:03:34;;;;;;;;;;;;;;;15.44;100.00;101974.94;5115444;28;19926;-75
2023/08/11 06:06:00;;;;;;;;;;;;;;;15.53;100.00;101975.94;5097356;28;19920;-73
2023/08/11 06:08:26;;;;;;;;;;;;;;;15.62;100.00;101975.06;5115938;28;19927;-73
2023/08/11 06:10:51;;;;;;;;;;;;;;;15.75;100.00;101979.25;5096930;28;20365;-73
2023/08/11 06:13:16;;;;;;;;;;;;;;;15.88;100.00;101978.97;5115585;28;19924;-72
2023/08/11 06:15:41;;;;;;;;;;;;;;;16.01;100.00;101969.59;5114822;28;20000;-72
2023/08/11 06:18:07;;;;;;;;;;;;;;;16.19;100.00;101968.81;5115461;28;19924;-73
2023/08/11 06:20:33;;;;;;;;;;;;;;;16.35;100.00;101971.72;5115353;28;19982;-73
2023/08/11 06:22:58;;;;;;;;;;;;;;;16.50;100.00;101972.06;5114577;28;19931;-73
2023/08/11 06:25:24;;;;;;;;;;;;;;;16.65;100.00;101963.50;5115060;28;19920;-73
2023/08/11 06:27:50;;;;;;;;;;;;;;;16.79;100.00;101968.31;5114577;28;20371;-73
2023/08/11 06:30:15;;;;;;;;;;;;;;;16.96;100.00;101971.19;5115243;28;19926;-73
2023/08/11 06:32:42;;;;;;;;;;;;;;;17.08;100.00;101968.13;5114739;28;20022;-74
2023/08/11 06:35:08;;;;;;;;;;;;;;;17.19;100.00;101971.59;5115177;28;19989;-73
2023/08/11 06:37:33;;;;;;;;;;;;;;;17.29;100.00;101961.59;5114981;28;20070;-73
2023/08/11 06:39:58;;;;;;;;;;;;;;;17.38;100.00;101963.31;5114558;28;19920;-74
2023/08/11 06:42:24;;;;;;;;;;;;;;;17.49;100.00;101964.91;5096661;28;19916;-73
2023/08/11 06:44:50;;;;;;;;;;;;;;;17.58;100.00;101960.44;5114505;28;19923;-75
2023/08/11 06:47:15;;;;;;;;;;;;;;;17.69;100.00;101962.88;5114963;28;19916;-75
2023/08/11 06:49:40;;;;;;;;;;;;;;;17.77;100.00;101965.59;5114668;28;19958;-76
2023/08/11 06:52:05;;;;;;;;;;;;;;;17.86;100.00;101962.97;5115089;28;19968;-76
2023/08/11 06:54:31;;;;;;;;;;;;;;;17.93;100.00;101958.66;5114766;28;20284;-75
2023/08/11 06:56:56;;;;;;;;;;;;;;;18.02;100.00;101954.16;5114391;28;19919;-75
2023/08/11 06:59:21;;;;;;;;;;;;;;;18.11;100.00;101961.28;5114372;28;19972;-75
2023/08/11 07:01:46;;;;;;;;;;;;;;;18.22;100.00;101966.34;5114272;28;19916;-75
2023/08/11 07:04:12;;;;;;;;;;;;;;;18.32;100.00;101968.94;5113809;28;19934;-76
2023/08/11 07:06:37;;;;;;;;;;;;;;;18.44;100.00;101974.88;5115103;28;20431;-75
2023/08/11 07:09:02;;;;;;;;;;;;;;;18.55;100.00;101974.56;5114179;28;19920;-76
2023/08/11 07:11:27;;;;;;;;;;;;;;;18.66;100.00;101968.88;5114430;28;20334;-75
2023/08/11 07:13:53;;;;;;;;;;;;;;;18.82;100.00;101969.88;5113965;28;19923;-75
2023/08/11 07:16:18;;;;;;;;;;;;;;;18.91;100.00;101971.63;5114266;28;19920;-75
2023/08/11 07:18:43;;;;;;;;;;;;;;;19.11;100.00;101969.44;5114046;28;20257;-77
2023/08/11 07:21:09;;;;;;;;;;;;;;;19.34;100.00;101971.47;5113960;28;19931;-76
2023/08/11 07:23:34;;;;;;;;;;;;;;;19.60;100.00;101973.97;5114340;28;20360;-75
2023/08/11 07:25:59;;;;;;;;;;;;;;;19.85;100.00;101971.25;5113827;28;20309;-76
2023/08/11 07:28:24;;;;;;;;;;;;;;;20.08;100.00;101979.47;5114029;28;19920;-75
2023/08/11 07:30:50;;;;;;;;;;;;;;;20.28;100.00;101974.47;5113698;28;19954;-75
2023/08/11 07:33:15;;;;;;;;;;;;;;;20.44;100.00;101976.25;5113857;28;19928;-75
2023/08/11 07:35:40;;;;;;;;;;;;;;;20.64;100.00;101967.69;5109914;28;19974;-75
2023/08/11 07:38:06;;;;;;;;;;;;;;;20.83;100.00;101974.53;5093429;28;20280;-75
2023/08/11 07:40:31;;;;;;;;;;;;;;;21.12;100.00;101971.09;5093783;28;19943;-75
2023/08/11 07:42:58;;;;;;;;;;;;;;;21.53;100.00;101984.31;5092441;28;19915;-74
2023/08/11 07:45:23;;;;;;;;;;;;;;;21.97;100.00;101969.09;5110627;28;19926;-81
2023/08/11 07:47:49;;;;;;;;;;;;;;;22.28;100.00;101974.31;5111197;28;19920;-81
2023/08/11 07:50:14;;;;;;;;;;;;;;;22.56;100.00;101972.78;5111388;28;20306;-79
2023/08/11 07:52:39;;;;;;;;;;;;;;;22.66;100.00;101971.44;5111582;28;20039;-80
2023/08/11 07:55:05;;;;;;;;;;;;;;;22.76;100.00;101976.53;5110209;28;19930;-78
2023/08/11 07:57:30;;;;;;;;;;;;;;;22.79;100.00;101984.28;5110548;28;20030;-78
2023/08/11 07:59:57;;;;;;;;;;;;;;;22.82;100.00;101985.78;5110550;28;20335;-78
2023/08/11 08:02:22;;;;;;;;;;;;;;;22.91;100.00;101984.63;5093439;28;19934;-76
2023/08/11 08:04:47;;;;;;;;;;;;;;;22.90;100.00;101985.69;5111381;28;19928;-78
2023/08/11 08:07:13;;;;;;;;;;;;;;;22.98;100.00;101988.25;5111440;28;20026;-77
2023/08/11 08:09:38;;;;;;;;;;;;;;;23.05;100.00;101982.91;5111078;28;19923;-78
2023/08/11 08:12:04;;;;;;;;;;;;;;;23.15;100.00;101990.72;5093265;28;19967;-79
2023/08/11 08:14:29;;;;;;;;;;;;;;;23.15;100.00;101982.59;5111162;28;19927;-77
2023/08/11 08:16:56;;;;;;;;;;;;;;;23.05;100.00;101986.44;5117162;28;19920;-77
2023/08/11 08:19:21;;;;;;;;;;;;;;;22.97;100.00;101983.84;5118107;28;19929;-78
2023/08/11 08:21:47;;;;;;;;;;;;;;;23.12;100.00;101981.09;5100847;28;19947;-77
2023/08/11 08:24:14;;;;;;;;;;;;;;;23.41;100.00;101982.00;5102269;28;20328;-77
2023/08/11 08:26:39;;;;;;;;;;;;;;;23.81;100.00;101979.56;5100944;28;20497;-79
2023/08/11 08:29:05;;;;;;;;;;;;;;;24.28;100.00;101977.09;5100396;28;19969;-76
2023/08/11 08:31:30;;;;;;;;;;;;;;;24.64;100.00;101974.09;5101212;28;20249;-79
2023/08/11 08:33:55;;;;;;;;;;;;;;;24.63;100.00;101971.56;5099690;28;19915;-78
2023/08/11 08:36:20;;;;;;;;;;;;;;;24.52;100.00;101983.03;5100261;28;19920;-78
2023/08/11 08:38:46;;;;;;;;;;;;;;;24.59;100.00;101978.50;5100015;28;20390;-77
2023/08/11 08:41:14;;;;;;;;;;;;;;;24.89;100.00;101978.97;5099295;28;20346;-78
2023/08/11 08:43:39;;;;;;;;;;;;;;;25.11;100.00;101982.34;5099807;28;20011;-78
2023/08/11 08:46:05;;;;;;;;;;;;;;;25.49;100.00;101978.16;5099075;28;20031;-77
2023/08/11 08:48:43;;;;;;;;;;;;;;;25.85;100.00;101982.28;5099364;28;19973;-77
2023/08/11 08:51:08;;;;;;;;;;;;;;;25.55;100.00;101980.03;5098961;28;19916;-78
2023/08/11 08:53:33;;;;;;;;;;;;;;;25.46;100.00;101978.59;5099555;28;19920;-77
2023/08/11 08:56:04;;;;;;;;;;;;;;;25.61;100.00;101976.47;5098923;28;20000;-77
2023/08/11 08:58:29;;;;;;;;;;;;;;;25.86;100.00;101971.16;5099817;28;19927;-77
2023/08/11 09:00:54;;;;;;;;;;;;;;;25.99;100.00;101967.63;5081203;28;19920;-75
2023/08/11 09:03:20;;;;;;;;;;;;;;;26.17;100.00;101964.19;5098983;28;20337;-80
2023/08/11 09:05:45;;;;;;;;;;;;;;;26.47;100.00;101966.34;5099643;28;20253;-81
2023/08/11 09:08:10;;;;;;;;;;;;;;;26.82;100.00;101967.84;5099615;28;19920;-81
2023/08/11 09:10:36;;;;;;;;;;;;;;;26.99;100.00;101971.72;5081490;28;19923;-78
2023/08/11 09:13:02;;;;;;;;;;;;;;;27.39;100.00;101971.38;5099955;28;19956;-82
2023/08/11 09:15:27;;;;;;;;;;;;;;;27.70;86.04;101975.09;5100154;28;20391;-82
2023/08/11 09:17:52;;;;;;;;;;;;;;;28.13;89.71;101968.72;5081225;28;19927;-86
2023/08/11 09:20:17;;;;;;;;;;;;;;;28.78;89.93;101966.41;5080686;28;19923;-83
2023/08/11 09:22:43;;;;;;;;;;;;;;;29.41;76.37;101959.50;5098903;28;20010;-82
2023/08/11 09:25:08;;;;;;;;;;;;;;;30.07;62.38;101962.03;5098968;28;19969;-83
2023/08/11 09:27:34;;;;;;;;;;;;;;;30.16;69.21;101959.75;5096698;28;20014;-83
2023/08/11 09:29:59;;;;;;;;;;;;;;;30.24;67.59;101971.16;5096404;28;20364;-83
2023/08/11 09:32:24;;;;;;;;;;;;;;;30.51;66.27;101976.09;5097208;28;19916;-85
2023/08/11 09:34:50;;;;;;;;;;;;;;;30.32;59.38;101974.59;5096707;28;19924;-85
2023/08/11 09:37:16;;;;;;;;;;;;;;;30.24;62.69;101979.38;5096620;28;19958;-85
2023/08/11 09:39:42;;;;;;;;;;;;;;;30.70;61.34;101975.88;5096650;28;19927;-84
2023/08/11 09:42:08;;;;;;;;;;;;;;;31.15;57.92;101977.75;5095922;28;19927;-82
2023/08/11 09:44:33;;;;;;;;;;;;;;;31.03;63.93;101980.59;5095891;28;20392;-84
2023/08/11 09:47:00;;;;;;;;;;;;;;;30.88;63.76;101983.88;5095988;28;19920;-82
2023/08/11 09:49:25;;;;;;;;;;;;;;;30.89;60.00;101974.56;5095347;28;19923;-85
2023/08/11 09:51:51;;;;;;;;;;;;;;;30.58;62.87;101976.75;5095782;28;19920;-83
2023/08/11 09:54:18;;;;;;;;;;;;;;;30.18;69.33;101965.81;5077108;28;19927;-83
2023/08/11 09:56:43;;;;;;;;;;;;;;;30.60;66.06;101968.28;5095325;28;19916;-84
2023/08/11 09:59:12;;;;;;;;;;;;;;;30.76;58.95;101972.16;5095405;28;20372;-83
2023/08/11 10:01:41;;;;;;;;;;;;;;;30.94;56.58;101977.38;5095985;28;19916;-84
2023/08/11 10:04:07;;;;;;;;;;;;;;;30.92;59.41;101976.81;5095721;28;19916;-82
2023/08/11 10:06:34;;;;;;;;;;;;;;;30.87;61.99;101979.50;5095825;28;20007;-82
2023/08/11 10:09:02;;;;;;;;;;;;;;;31.03;61.20;101968.78;5095566;28;20060;-76
2023/08/11 10:11:28;;;;;;;;;;;;;;;31.32;62.13;101969.53;5094716;28;20288;-77
2023/08/11 10:13:55;;;;;;;;;;;;;;;31.49;58.51;101963.16;5096212;28;19920;-76
2023/08/11 10:16:20;;;;;;;;;;;;;;;31.36;54.45;101972.59;5094813;28;20371;-77
2023/08/11 10:18:46;;;;;;;;;;;;;;;31.54;54.47;101968.72;5094863;28;19945;-76
2023/08/11 10:21:12;;;;;;;;;;;;;;;31.28;61.58;101971.94;5096646;28;19920;-79
2023/08/11 10:23:37;;;;;;;;;;;;;;;31.01;56.52;101963.53;5097218;28;19928;-79
2023/08/11 10:26:03;;;;;;;;;;;;;;;31.08;62.85;101968.84;5092917;28;19916;-72
2023/08/11 10:28:29;;;;;;;;;;;;;;;30.90;60.19;101968.00;5093054;28;19924;-71
2023/08/11 10:30:55;;;;;;;;;;;;;;;31.35;59.66;101971.78;5095105;28;20333;-71
2023/08/11 10:33:20;;;;;;;;;;;;;;;31.31;60.47;101962.34;5091635;28;19946;-72
2023/08/11 10:35:45;;;;;;;;;;;;;;;30.88;61.07;101978.38;5091994;28;20006;-71
2023/08/11 10:38:11;;;;;;;;;;;;;;;30.28;61.13;101977.00;5091469;28;19960;-72
2023/08/11 10:40:39;;;;;;;;;;;;;;;29.76;68.09;101982.47;5091122;28;20086;-72
2023/08/11 10:43:05;;;;;;;;;;;;;;;29.25;65.46;101982.13;5091777;28;19999;-71
2023/08/11 10:45:31;;;;;;;;;;;;;;;28.36;71.19;101977.28;5091356;28;20015;-72
2023/08/11 10:47:58;;;;;;;;;;;;;;;27.84;89.63;101981.25;5091640;28;19928;-71
2023/08/11 10:50:23;;;;;;;;;;;;;;;27.23;93.82;101986.44;5091295;28;19920;-71
2023/08/11 10:53:04;;;;;;;;;;;;;;;26.96;97.82;101996.75;5091833;28;19925;-71
2023/08/11 10:55:30;;;;;;;;;;;;;;;26.71;97.09;101997.50;5093489;28;19963;-71
2023/08/11 10:58:11;;;;;;;;;;;;;;;26.51;94.67;101989.44;5111356;28;19982;-72
2023/08/11 11:00:37;;;;;;;;;;;;;;;26.72;93.01;101993.75;5093122;28;20022;-72
2023/08/11 11:03:02;;;;;;;;;;;;;;;27.93;83.58;101992.72;5111711;28;20022;-72
2023/08/11 11:05:27;;;;;;;;;;;;;;;28.72;84.14;101995.53;5111292;28;19916;-71
2023/08/11 11:07:53;;;;;;;;;;;;;;;28.61;77.59;101993.63;5111724;28;19930;-72
2023/08/11 11:10:18;;;;;;;;;;;;;;;29.32;83.35;101999.25;5111083;28;19924;-72
2023/08/11 11:12:44;;;;;;;;;;;;;;;30.46;65.75;101999.88;5111498;28;19931;-71
2023/08/11 11:15:09;;;;;;;;;;;;;;;31.28;57.02;101999.41;5111431;28;19927;-71
2023/08/11 11:17:34;;;;;;;;;;;;;;;31.57;57.74;101996.56;5108383;28;20283;-71
2023/08/11 11:20:00;;;;;;;;;;;;;;;31.70;54.42;102000.06;5076289;28;20022;-72
2023/08/11 11:22:25;;;;;;;;;;;;;;;31.90;53.21;101996.75;5092906;28;19931;-72
2023/08/11 11:24:50;;;;;;;;;;;;;;;32.19;54.09;102000.19;5093778;28;19970;-71
2023/08/11 11:27:16;;;;;;;;;;;;;;;32.52;55.09;101998.34;5093531;28;20006;-72
2023/08/11 11:29:41;;;;;;;;;;;;;;;32.77;51.87;101999.69;5093654;28;19920;-70
2023/08/11 11:32:06;;;;;;;;;;;;;;;32.65;49.06;102000.69;5093725;28;19920;-74
2023/08/11 11:37:12;;;;;;;10.10;2.88;;;;;;;31.31;58.99;102006.34;5069832;28;20390;-73
2023/08/11 11:39:38;;;;;;;7.63;2.65;;;;;;;31.17;54.51;102010.50;5068154;28;20048;-74
2023/08/11 11:42:06;;;;;;;6.40;2.50;;;;;;;31.18;57.15;102003.94;5068711;28;20033;-74
2023/08/11 11:44:32;;;;;;;14.38;3.28;;;;;;;30.97;56.98;102009.03;4169330;28;10001089;-73
2023/08/11 11:52:33;;;;;;;9.73;3.17;;;;;;;30.83;57.82;102018.66;5069159;28;20572;-75
2023/08/11 11:55:00;;;;;;;12.38;3.38;;;;;;;30.38;56.02;102020.25;5069823;28;20041;-75
2023/08/11 11:57:26;;;;;;;11.60;2.95;;;;;;;29.97;64.51;102011.19;5069446;28;20040;-75
2023/08/11 12:01:41;;;;;;;10.45;3.08;;;;;;;29.36;71.10;102011.44;5093064;27;1255988;-76
2023/08/11 12:04:07;;;;;;;9.25;2.65;;;;;;;29.34;70.50;102002.63;5110411;28;20032;-77
2023/08/11 12:08:51;;;;;;;5.72;2.22;;;;;;;29.10;69.40;102015.44;5151504;27;20329;-75
2023/08/11 12:11:25;;;;;;;6.32;2.20;;;;;;;29.42;69.86;102013.22;5132880;28;20099;-76
2023/08/11 12:13:50;;;;;;;5.20;2.08;;;;;;;29.67;71.64;102012.97;5131496;28;20030;-76
2023/08/11 12:16:17;;;;;;;7.32;2.40;;;;;;;29.68;76.58;102019.31;5132484;28;20028;-76
2023/08/11 12:18:43;;;;;;;9.35;2.17;;;;;;;29.30;70.85;102012.38;5130538;28;20081;-74
2023/08/11 12:21:09;;;;;;;9.30;2.15;;;;;;;28.17;79.59;102014.78;5130898;28;20401;-74
2023/08/11 12:23:35;;;;;;;4.90;2.03;;;;;;;28.08;84.07;102023.31;5130421;28;20456;-76
2023/08/11 12:26:01;;;;;;;8.35;2.60;;;;;;;28.08;91.45;102019.72;5130721;28;20035;-75
2023/08/11 12:28:26;;;;;;;10.30;2.42;;;;;;;27.95;83.16;102031.63;5130400;28;20086;-77